KROA

Roanoke-Blacksburg Regional / Woodrum Field Airport

Roanoke, Virginia, USA
METAR KROA 180054Z 30011KT 10SM CLR 14/04 A3021 RMK AO2 SLP226 T01440044
Observed Flight Rules
Oct-18 @ 00:54 UTC (50 minutes ago) Visual Flight Rules
Wind Visibility Clouds
300° at 11 knots 10 miles
  • Clear skies
Temperatures Readings
Current 14°C / 57°F
Dewpoint 4°C / 39°F
Humidity 51%
Altimeter 30.21" Hg
Pressure 1022.6 hPa
Elevation 362
METAR KROA 180054Z 30011KT 10SM CLR 14/04 A3021 RMK AO2 SLP226 T01440044
Observed Flight Rules
Oct-18 @ 00:54 UTC
(50 minutes ago)
VFR
Wind Visibility
300° at 11 knots 10 miles
Clouds
  • Clear skies
Temperature Dewpoint
14°C / 57°F 4°C / 39°F
Humidity Altimeter Pressure
51% 30.21" Hg 1022.6 hPa